www.srh.weather.gov   
NOAA logo - Click to go to the NOAA homepage   NWS logo
Extended Streamflow Prediction
Enter Your "City, ST" or zip code   
Current Version              Previous Version:    01  02  03  04  05  06  07  08  09  10  11  12  13  14  15  16  17  18  19  20  21  22  23  24  25  26  27  28  29  30  
   31  32  33  34  35  36  37  38  39  40  41  42  43  44  45  46  47  48  49  50  51  52  53  54  55  56  57  58  59  60  
[Printable]
009
FGUS64 KORN 201915
ESPORN
EXTENDED STREAMFLOW PREDICTION
NATIONAL WEATHER SERVICE RIVER FORECAST CENTER, SLIDELL, LA
100 PM CDT WED 20 2014

   DATE   CPGM7 CIRI2 NMDM7 TPTT1 CRTM7 OSGA4 MEMT1 TRPM6 HEEA4
08-21-14   16.1  18.6   7.4  10.7  10.8   2.9   2.5  12.7   8.4
08-22-14   17.2  18.4   7.0  10.5  11.1   3.8   3.3  13.4   8.9
08-23-14   17.6  18.6   6.9  10.3  10.7   3.5   3.6  13.9   9.5
08-24-14   17.5  18.8   7.1  10.4  10.6   3.3   3.2  13.7   9.6
08-25-14   16.8  19.0   7.4  10.6  10.8   3.5   3.2  13.5   9.3
08-26-14   15.5  18.4   7.4  10.8  11.1   3.7   3.3  13.6   9.3
08-27-14   13.6  17.6   6.7  10.3  11.0   3.9   3.4  13.7   9.4
08-28-14   11.9  16.7   5.9   9.5  10.4   3.4   3.3  13.8   9.5
08-29-14   10.9  15.7   5.0   8.7   9.7   2.5   2.8  13.4   9.4
08-30-14   10.5  14.9   4.1   7.9   8.8   1.7   2.2  12.9   8.9
08-31-14   10.4  14.3   3.5   7.1   8.0   0.8   1.4  12.4   8.4
09-01-14   10.2  13.8   2.9   6.6   7.5   0.0   0.6  11.5   7.7
09-02-14    9.8  13.2   2.3   6.0   6.9  -0.5   0.0  10.7   6.9
09-03-14    9.4  12.7   1.8   5.5   6.4  -1.0  -0.5  10.3   6.4
09-04-14    8.9  12.1   1.3   5.1   6.0  -1.6  -1.0   9.7   5.9
09-05-14    8.5  11.6   0.8   4.6   5.5  -2.1  -1.4   9.3   5.4
09-06-14    8.2  11.2   0.4   4.1   5.1  -2.6  -1.9   8.8   5.0
09-07-14    7.8  11.0   0.0   3.7   4.6  -3.0  -2.4   8.4   4.6
09-08-14    7.5  10.7  -0.1   3.5   4.3  -3.5  -2.9   7.9   4.1
09-09-14    7.2  10.5  -0.3   3.3   4.1  -3.7  -3.2   7.5   3.7
09-10-14    6.9  10.3  -0.5   3.1   4.0  -3.9  -3.4   7.3   3.4
09-11-14    6.6  10.1  -0.7   2.9   3.7  -4.2  -3.5   7.2   3.2
09-12-14    6.3   9.9  -0.9   2.7   3.6  -4.4  -3.8   7.0   3.1
09-13-14    6.2   9.8  -1.0   2.6   3.4  -4.5  -3.9   6.8   2.8
09-14-14    6.1   9.6  -1.2   2.4   3.3  -4.7  -4.1   6.6   2.7
09-15-14    6.0   9.4  -1.3   2.3   3.1  -4.9  -4.3   6.5   2.6
09-16-14    6.0   9.3  -1.4   2.1   3.0  -5.0  -4.5   6.3   2.4
09-17-14    6.0   9.1  -1.6   2.0   2.9  -5.2  -4.6   6.2   2.2

   DATE   ARSA4 GEEM6 VCKM6 NTZM6 RRLL1 BTRL1 DONL1 RRVL1 NORL1
08-21-14    7.2  17.0  11.7  18.8  22.4   8.5   4.7   3.7   3.0
08-22-14    7.4  17.4  12.0  18.9  22.4   8.4   4.6   3.4   3.0
08-23-14    7.8  17.6  12.3  19.2  22.5   8.5   4.4   3.3   3.0
08-24-14    8.4  18.1  12.6  19.5  22.7   8.6   4.4   3.4   2.8
08-25-14    8.5  18.5  13.0  19.7  23.0   8.8   4.5   3.4   2.7
08-26-14    8.3  18.2  13.5  20.1  23.3   9.1   4.6   3.4   2.7
08-27-14    8.2  18.1  13.2  20.6  23.6   9.4   4.7   3.7   2.8
08-28-14    8.3  18.2  13.1  20.3  23.8   9.6   4.9   3.9   2.8
08-29-14    8.5  18.3  13.2  20.2  23.9   9.6   5.1   3.9   2.9
08-30-14    8.4  18.3  13.3  20.3  23.9   9.7   5.2   3.9   3.1
08-31-14    7.9  17.9  13.3  20.5  23.9   9.7   5.1   3.8   3.1
09-01-14    7.5  17.5  13.0  20.5  24.0   9.7   5.1   3.8   3.0
09-02-14    6.9  17.0  12.6  20.2  24.0   9.8   5.2   3.8   3.0
09-03-14    6.2  16.3  12.1  19.8  23.6   9.7   5.2   3.9   3.0
09-04-14    5.7  15.8  11.5  19.4  23.3   9.5   5.1   3.8   3.0
09-05-14    5.2  15.5  11.0  18.8  22.9   9.2   4.9   3.7   3.0
09-06-14    4.8  15.1  10.6  18.4  22.3   8.7   4.6   3.6   2.9
09-07-14    4.5  14.7  10.3  18.0  22.0   8.1   4.2   3.3   2.7
09-08-14    4.1  14.3   9.9  17.7  21.7   7.9   4.0   3.1   2.5
09-09-14    3.7  14.0   9.6  17.4  21.3   7.6   3.7   2.9   2.4
09-10-14    3.3  13.6   9.3  17.1  21.1   7.3   3.5   2.8   2.3
09-11-14    3.0  13.3   9.0  16.7  20.8   7.0   3.3   2.6   2.2
09-12-14    2.9  13.2   8.6  16.5  20.5   6.8   3.2   2.5   2.1
09-13-14    2.8  13.1   8.5  16.2  20.2   6.4   3.0   2.4   2.0
09-14-14    2.6  12.9   8.5  16.1  19.9   6.2   2.8   2.2   1.9
09-15-14    2.4  12.8   8.3  16.0  19.9   6.1   2.6   2.1   1.9
09-16-14    2.3  12.7   8.1  15.9  19.8   6.1   2.6   2.1   1.7
09-17-14    2.2  12.6   8.1  15.7  19.8   6.0   2.6   2.1   1.7

NOTE: STAGE FORECASTS ARE BASED ON FUTURE RAINFALL COVERING
THE NEXT 24 HOURS.

END ORN


$$





National Weather Service
Disclaimer
Last Modified: August 31, 2005
Privacy Policy